sensor_id;sensor_type;location;lat;lon;timestamp;pressure;altitude;pressure_sealevel;temperature;humidity
46111;BME280;31849;55.992;37.252;2022-11-15T00:02:04;99754.75;;;1.46;43.36
46111;BME280;31849;55.992;37.252;2022-11-15T00:07:08;99743.81;;;1.50;43.80
46111;BME280;31849;55.992;37.252;2022-11-15T00:12:29;99738.56;;;1.47;43.81
46111;BME280;31849;55.992;37.252;2022-11-15T00:17:32;99744.44;;;1.45;43.64
46111;BME280;31849;55.992;37.252;2022-11-15T00:22:35;99733.34;;;1.44;43.59
46111;BME280;31849;55.992;37.252;2022-11-15T00:27:39;99728.78;;;1.37;43.35
46111;BME280;31849;55.992;37.252;2022-11-15T00:32:43;99725.31;;;1.36;44.03
46111;BME280;31849;55.992;37.252;2022-11-15T00:37:46;99726.97;;;1.34;44.18
46111;BME280;31849;55.992;37.252;2022-11-15T00:42:50;99721.16;;;1.38;43.53
46111;BME280;31849;55.992;37.252;2022-11-15T00:47:53;99703.22;;;1.38;43.48
46111;BME280;31849;55.992;37.252;2022-11-15T00:52:56;99702.03;;;1.30;44.07
46111;BME280;31849;55.992;37.252;2022-11-15T00:58:01;99700.78;;;1.19;44.19
46111;BME280;31849;55.992;37.252;2022-11-15T01:03:04;99688.03;;;1.20;44.22
46111;BME280;31849;55.992;37.252;2022-11-15T01:08:10;99683.59;;;1.16;44.22
46111;BME280;31849;55.992;37.252;2022-11-15T01:13:16;99674.88;;;1.13;44.30
46111;BME280;31849;55.992;37.252;2022-11-15T01:18:19;99672.94;;;1.05;44.16
46111;BME280;31849;55.992;37.252;2022-11-15T01:23:22;99676.97;;;1.00;44.27
46111;BME280;31849;55.992;37.252;2022-11-15T01:28:26;99669.00;;;0.93;44.51
46111;BME280;31849;55.992;37.252;2022-11-15T01:33:33;99660.97;;;0.83;44.59
46111;BME280;31849;55.992;37.252;2022-11-15T01:38:36;99665.69;;;0.74;44.84
46111;BME280;31849;55.992;37.252;2022-11-15T01:43:41;99663.50;;;0.62;44.99
46111;BME280;31849;55.992;37.252;2022-11-15T01:48:44;99668.06;;;0.48;45.40
46111;BME280;31849;55.992;37.252;2022-11-15T01:53:49;99657.53;;;0.62;45.70
46111;BME280;31849;55.992;37.252;2022-11-15T01:58:55;99664.03;;;0.75;45.29
46111;BME280;31849;55.992;37.252;2022-11-15T02:04:00;99660.13;;;0.84;44.91
46111;BME280;31849;55.992;37.252;2022-11-15T02:09:05;99648.41;;;0.90;45.14
46111;BME280;31849;55.992;37.252;2022-11-15T02:14:10;99656.88;;;0.88;44.84
46111;BME280;31849;55.992;37.252;2022-11-15T02:19:41;99652.56;;;0.87;44.70
46111;BME280;31849;55.992;37.252;2022-11-15T02:25:03;99662.44;;;0.78;44.82
46111;BME280;31849;55.992;37.252;2022-11-15T02:30:22;99655.66;;;0.79;45.04
46111;BME280;31849;55.992;37.252;2022-11-15T02:35:28;99646.41;;;0.82;44.50
46111;BME280;31849;55.992;37.252;2022-11-15T02:40:34;99639.72;;;0.86;44.86
46111;BME280;31849;55.992;37.252;2022-11-15T02:45:44;99633.13;;;0.70;45.18
46111;BME280;31849;55.992;37.252;2022-11-15T02:50:49;99634.81;;;0.69;45.43
46111;BME280;31849;55.992;37.252;2022-11-15T02:55:52;99631.31;;;0.67;45.52
46111;BME280;31849;55.992;37.252;2022-11-15T03:00:58;99613.59;;;0.72;45.46
46111;BME280;31849;55.992;37.252;2022-11-15T03:06:05;99605.97;;;0.74;45.24
46111;BME280;31849;55.992;37.252;2022-11-15T03:11:09;99607.94;;;0.58;45.29
46111;BME280;31849;55.992;37.252;2022-11-15T03:16:16;99611.47;;;0.62;45.27
46111;BME280;31849;55.992;37.252;2022-11-15T03:21:22;99611.88;;;0.73;45.37
46111;BME280;31849;55.992;37.252;2022-11-15T03:26:27;99600.91;;;0.75;45.02
46111;BME280;31849;55.992;37.252;2022-11-15T03:31:33;99601.53;;;0.91;44.88
46111;BME280;31849;55.992;37.252;2022-11-15T03:36:52;99599.38;;;1.01;44.54
46111;BME280;31849;55.992;37.252;2022-11-15T03:41:57;99596.56;;;0.95;44.87
46111;BME280;31849;55.992;37.252;2022-11-15T03:47:06;99592.94;;;0.90;44.51
46111;BME280;31849;55.992;37.252;2022-11-15T03:52:11;99586.63;;;0.80;45.40
46111;BME280;31849;55.992;37.252;2022-11-15T03:57:14;99576.28;;;0.56;44.78
46111;BME280;31849;55.992;37.252;2022-11-15T04:02:19;99576.78;;;0.47;45.13
46111;BME280;31849;55.992;37.252;2022-11-15T04:07:22;99580.41;;;0.52;45.42
46111;BME280;31849;55.992;37.252;2022-11-15T04:12:45;99574.78;;;0.61;44.89
46111;BME280;31849;55.992;37.252;2022-11-15T04:21:01;99574.72;;;0.60;45.00
46111;BME280;31849;55.992;37.252;2022-11-15T04:26:23;99571.94;;;0.54;44.78
46111;BME280;31849;55.992;37.252;2022-11-15T04:31:45;99567.16;;;0.40;45.15
46111;BME280;31849;55.992;37.252;2022-11-15T04:37:09;99558.06;;;0.48;44.66
46111;BME280;31849;55.992;37.252;2022-11-15T04:42:34;99555.22;;;0.41;44.50
46111;BME280;31849;55.992;37.252;2022-11-15T04:47:56;99549.41;;;0.45;44.70
46111;BME280;31849;55.992;37.252;2022-11-15T04:53:01;99553.47;;;0.40;44.68
46111;BME280;31849;55.992;37.252;2022-11-15T04:58:04;99551.97;;;0.45;44.63
46111;BME280;31849;55.992;37.252;2022-11-15T05:03:09;99539.34;;;0.49;44.40
46111;BME280;31849;55.992;37.252;2022-11-15T05:08:32;99528.38;;;0.52;43.91
46111;BME280;31849;55.992;37.252;2022-11-15T05:13:36;99524.22;;;0.33;44.63
46111;BME280;31849;55.992;37.252;2022-11-15T05:18:39;99531.13;;;0.35;44.37
46111;BME280;31849;55.992;37.252;2022-11-15T05:23:44;99533.06;;;0.41;44.49
46111;BME280;31849;55.992;37.252;2022-11-15T05:28:51;99527.94;;;0.41;44.78
46111;BME280;31849;55.992;37.252;2022-11-15T05:33:56;99516.78;;;0.39;44.87
46111;BME280;31849;55.992;37.252;2022-11-15T05:39:04;99514.84;;;0.33;44.57
46111;BME280;31849;55.992;37.252;2022-11-15T05:44:11;99526.50;;;0.48;44.60
46111;BME280;31849;55.992;37.252;2022-11-15T05:49:20;99519.34;;;0.62;44.37
46111;BME280;31849;55.992;37.252;2022-11-15T05:54:26;99510.53;;;0.54;44.43
46111;BME280;31849;55.992;37.252;2022-11-15T05:59:30;99502.66;;;0.49;44.41
46111;BME280;31849;55.992;37.252;2022-11-15T06:04:34;99512.13;;;0.51;44.20
46111;BME280;31849;55.992;37.252;2022-11-15T06:09:39;99508.03;;;0.55;44.41
46111;BME280;31849;55.992;37.252;2022-11-15T06:14:42;99488.19;;;0.49;44.60
46111;BME280;31849;55.992;37.252;2022-11-15T06:19:46;99503.31;;;0.43;44.93
46111;BME280;31849;55.992;37.252;2022-11-15T06:24:51;99493.75;;;0.39;45.21
46111;BME280;31849;55.992;37.252;2022-11-15T06:29:54;99488.66;;;0.39;45.18
46111;BME280;31849;55.992;37.252;2022-11-15T06:34:57;99482.31;;;0.52;45.16
46111;BME280;31849;55.992;37.252;2022-11-15T06:40:03;99482.91;;;0.67;45.29
46111;BME280;31849;55.992;37.252;2022-11-15T06:45:07;99477.19;;;0.75;45.08
46111;BME280;31849;55.992;37.252;2022-11-15T06:50:10;99460.56;;;0.63;45.38
46111;BME280;31849;55.992;37.252;2022-11-15T06:55:15;99462.81;;;0.78;45.05
46111;BME280;31849;55.992;37.252;2022-11-15T07:00:20;99464.88;;;0.88;45.00
46111;BME280;31849;55.992;37.252;2022-11-15T07:05:24;99462.16;;;0.84;44.92
46111;BME280;31849;55.992;37.252;2022-11-15T07:10:29;99445.44;;;0.69;45.24
46111;BME280;31849;55.992;37.252;2022-11-15T07:15:32;99442.00;;;0.69;45.00
46111;BME280;31849;55.992;37.252;2022-11-15T07:20:36;99439.44;;;0.69;45.22
46111;BME280;31849;55.992;37.252;2022-11-15T07:25:41;99423.28;;;0.70;45.06
46111;BME280;31849;55.992;37.252;2022-11-15T07:30:44;99421.09;;;0.57;45.35
46111;BME280;31849;55.992;37.252;2022-11-15T07:35:48;99416.13;;;0.61;45.09
46111;BME280;31849;55.992;37.252;2022-11-15T07:40:57;99418.75;;;0.87;44.91
46111;BME280;31849;55.992;37.252;2022-11-15T07:46:04;99423.41;;;0.73;44.68
46111;BME280;31849;55.992;37.252;2022-11-15T07:51:11;99412.19;;;0.94;44.27
46111;BME280;31849;55.992;37.252;2022-11-15T07:56:17;99412.88;;;0.90;43.95
46111;BME280;31849;55.992;37.252;2022-11-15T08:01:22;99406.28;;;0.72;44.81
46111;BME280;31849;55.992;37.252;2022-11-15T08:06:26;99410.00;;;0.80;44.39
46111;BME280;31849;55.992;37.252;2022-11-15T08:11:31;99409.28;;;1.09;44.10
46111;BME280;31849;55.992;37.252;2022-11-15T08:16:34;99398.03;;;1.29;43.72
46111;BME280;31849;55.992;37.252;2022-11-15T08:21:38;99390.16;;;0.99;44.09
46111;BME280;31849;55.992;37.252;2022-11-15T08:26:43;99396.38;;;1.05;43.90
46111;BME280;31849;55.992;37.252;2022-11-15T08:31:46;99392.06;;;1.04;43.84
46111;BME280;31849;55.992;37.252;2022-11-15T08:36:50;99386.66;;;1.21;43.35
46111;BME280;31849;55.992;37.252;2022-11-15T08:41:54;99383.97;;;1.18;43.84
46111;BME280;31849;55.992;37.252;2022-11-15T08:46:58;99380.28;;;1.10;43.80
46111;BME280;31849;55.992;37.252;2022-11-15T08:52:01;99376.06;;;1.10;43.47
46111;BME280;31849;55.992;37.252;2022-11-15T08:57:06;99370.50;;;0.98;44.12
46111;BME280;31849;55.992;37.252;2022-11-15T09:02:13;99358.28;;;1.15;43.83
46111;BME280;31849;55.992;37.252;2022-11-15T09:07:17;99351.91;;;1.03;44.03
46111;BME280;31849;55.992;37.252;2022-11-15T09:12:22;99342.66;;;1.07;43.32
46111;BME280;31849;55.992;37.252;2022-11-15T09:17:25;99345.06;;;0.78;43.45
46111;BME280;31849;55.992;37.252;2022-11-15T09:22:29;99339.44;;;0.63;43.73
46111;BME280;31849;55.992;37.252;2022-11-15T09:27:34;99338.28;;;0.79;43.76
46111;BME280;31849;55.992;37.252;2022-11-15T09:32:37;99344.13;;;1.00;43.29
46111;BME280;31849;55.992;37.252;2022-11-15T09:37:40;99345.16;;;1.05;43.49
46111;BME280;31849;55.992;37.252;2022-11-15T09:42:54;99347.81;;;1.09;43.28
46111;BME280;31849;55.992;37.252;2022-11-15T09:48:10;99338.91;;;0.97;43.51
46111;BME280;31849;55.992;37.252;2022-11-15T09:53:22;99322.06;;;1.04;43.99
46111;BME280;31849;55.992;37.252;2022-11-15T09:58:56;99322.63;;;1.21;42.92
46111;BME280;31849;55.992;37.252;2022-11-15T10:04:02;99330.47;;;1.00;43.47
46111;BME280;31849;55.992;37.252;2022-11-15T10:09:15;99311.75;;;1.02;43.17
46111;BME280;31849;55.992;37.252;2022-11-15T10:14:28;99298.09;;;1.02;43.21
46111;BME280;31849;55.992;37.252;2022-11-15T10:19:38;99296.94;;;0.92;43.92
46111;BME280;31849;55.992;37.252;2022-11-15T10:24:46;99290.81;;;0.88;43.86
46111;BME280;31849;55.992;37.252;2022-11-15T10:29:51;99284.66;;;0.82;43.86
46111;BME280;31849;55.992;37.252;2022-11-15T10:34:54;99278.13;;;0.92;44.02
46111;BME280;31849;55.992;37.252;2022-11-15T10:40:05;99264.00;;;0.77;43.45
46111;BME280;31849;55.992;37.252;2022-11-15T10:45:23;99237.25;;;0.95;43.40
46111;BME280;31849;55.992;37.252;2022-11-15T10:50:29;99267.78;;;0.88;44.01
46111;BME280;31849;55.992;37.252;2022-11-15T10:55:33;99260.50;;;0.75;44.36
46111;BME280;31849;55.992;37.252;2022-11-15T11:00:39;99253.66;;;0.74;44.77
46111;BME280;31849;55.992;37.252;2022-11-15T11:05:44;99234.25;;;0.81;44.65
46111;BME280;31849;55.992;37.252;2022-11-15T11:10:52;99239.44;;;0.82;45.31
46111;BME280;31849;55.992;37.252;2022-11-15T11:16:17;99223.47;;;0.90;45.17
46111;BME280;31849;55.992;37.252;2022-11-15T11:21:31;99222.03;;;0.99;45.23
46111;BME280;31849;55.992;37.252;2022-11-15T11:26:44;99208.34;;;0.97;44.63
46111;BME280;31849;55.992;37.252;2022-11-15T11:32:02;99202.63;;;1.06;45.15
46111;BME280;31849;55.992;37.252;2022-11-15T11:37:12;99210.03;;;1.24;45.66
46111;BME280;31849;55.992;37.252;2022-11-15T11:42:26;99211.28;;;0.82;47.52
46111;BME280;31849;55.992;37.252;2022-11-15T11:47:39;99201.47;;;0.69;47.81
46111;BME280;31849;55.992;37.252;2022-11-15T11:52:48;99206.53;;;0.42;49.09
46111;BME280;31849;55.992;37.252;2022-11-15T11:58:11;99203.38;;;0.50;48.96
46111;BME280;31849;55.992;37.252;2022-11-15T12:03:24;99192.63;;;0.61;49.07
46111;BME280;31849;55.992;37.252;2022-11-15T12:08:33;99197.16;;;0.42;50.95
46111;BME280;31849;55.992;37.252;2022-11-15T12:13:39;99175.03;;;0.44;50.14
46111;BME280;31849;55.992;37.252;2022-11-15T12:18:48;99183.66;;;0.46;51.28
46111;BME280;31849;55.992;37.252;2022-11-15T12:23:59;99168.56;;;0.28;51.92
46111;BME280;31849;55.992;37.252;2022-11-15T12:29:11;99167.66;;;0.02;54.25
46111;BME280;31849;55.992;37.252;2022-11-15T12:34:50;99161.94;;;-0.15;56.37
46111;BME280;31849;55.992;37.252;2022-11-15T12:40:21;99156.13;;;-0.35;56.21
46111;BME280;31849;55.992;37.252;2022-11-15T12:45:26;99143.03;;;-0.44;55.00
46111;BME280;31849;55.992;37.252;2022-11-15T12:50:54;99125.44;;;-0.37;55.55
46111;BME280;31849;55.992;37.252;2022-11-15T12:56:31;99115.84;;;-0.42;58.68
46111;BME280;31849;55.992;37.252;2022-11-15T13:01:59;99110.00;;;-0.40;56.59
46111;BME280;31849;55.992;37.252;2022-11-15T13:07:05;99112.28;;;-0.47;57.43
46111;BME280;31849;55.992;37.252;2022-11-15T13:12:11;99106.00;;;-0.56;57.00
46111;BME280;31849;55.992;37.252;2022-11-15T13:17:37;99097.59;;;-0.53;57.25
46111;BME280;31849;55.992;37.252;2022-11-15T13:22:46;99084.97;;;-0.73;58.58
46111;BME280;31849;55.992;37.252;2022-11-15T13:27:56;99089.66;;;-0.61;58.06
46111;BME280;31849;55.992;37.252;2022-11-15T13:33:10;99083.22;;;-0.74;58.70
46111;BME280;31849;55.992;37.252;2022-11-15T13:38:26;99081.81;;;-0.65;60.52
46111;BME280;31849;55.992;37.252;2022-11-15T13:43:34;99082.16;;;-0.32;58.13
46111;BME280;31849;55.992;37.252;2022-11-15T13:48:39;99077.03;;;-0.32;58.17
46111;BME280;31849;55.992;37.252;2022-11-15T13:53:55;99074.50;;;-0.32;58.70
46111;BME280;31849;55.992;37.252;2022-11-15T13:59:00;99050.69;;;-0.31;57.70
46111;BME280;31849;55.992;37.252;2022-11-15T14:04:04;99072.13;;;-0.26;58.02
46111;BME280;31849;55.992;37.252;2022-11-15T14:09:39;99066.13;;;-0.52;60.30
46111;BME280;31849;55.992;37.252;2022-11-15T15:47:28;98945.75;;;-2.03;65.95
46111;BME280;31849;55.992;37.252;2022-11-15T15:52:32;98959.63;;;-1.51;66.12
46111;BME280;31849;55.992;37.252;2022-11-15T15:57:35;98948.69;;;-1.25;65.27
46111;BME280;31849;55.992;37.252;2022-11-15T16:02:40;98955.88;;;-0.90;64.91
46111;BME280;31849;55.992;37.252;2022-11-15T16:07:44;98937.13;;;-0.91;65.18
46111;BME280;31849;55.992;37.252;2022-11-15T16:12:49;98944.19;;;-0.83;65.26
46111;BME280;31849;55.992;37.252;2022-11-15T16:17:55;98938.88;;;-0.90;65.81
46111;BME280;31849;55.992;37.252;2022-11-15T16:22:59;98937.06;;;-0.68;64.47
46111;BME280;31849;55.992;37.252;2022-11-15T16:28:16;98933.25;;;-0.54;64.40
46111;BME280;31849;55.992;37.252;2022-11-15T16:33:21;98936.13;;;-0.70;64.72
46111;BME280;31849;55.992;37.252;2022-11-15T16:38:24;98932.47;;;-0.52;63.62
46111;BME280;31849;55.992;37.252;2022-11-15T16:43:28;98928.84;;;-0.59;63.85
46111;BME280;31849;55.992;37.252;2022-11-15T16:48:33;98917.00;;;-0.57;63.75
46111;BME280;31849;55.992;37.252;2022-11-15T16:53:37;98924.78;;;-0.52;63.46
46111;BME280;31849;55.992;37.252;2022-11-15T16:58:41;98912.88;;;-0.52;63.51
46111;BME280;31849;55.992;37.252;2022-11-15T17:03:45;98906.31;;;-0.45;63.75
46111;BME280;31849;55.992;37.252;2022-11-15T17:08:49;98908.78;;;-0.74;65.01
46111;BME280;31849;55.992;37.252;2022-11-15T17:13:56;98907.72;;;-0.79;64.12
46111;BME280;31849;55.992;37.252;2022-11-15T17:19:01;98909.47;;;-0.78;64.54
46111;BME280;31849;55.992;37.252;2022-11-15T17:24:06;98910.63;;;-0.68;64.26
46111;BME280;31849;55.992;37.252;2022-11-15T17:29:10;98905.75;;;-0.62;63.45
46111;BME280;31849;55.992;37.252;2022-11-15T17:34:15;98904.97;;;-0.60;63.64
46111;BME280;31849;55.992;37.252;2022-11-15T17:39:18;98894.97;;;-0.54;63.44
46111;BME280;31849;55.992;37.252;2022-11-15T17:44:22;98901.72;;;-0.81;64.06
46111;BME280;31849;55.992;37.252;2022-11-15T17:49:26;98901.41;;;-0.65;63.43
46111;BME280;31849;55.992;37.252;2022-11-15T17:54:30;98896.00;;;-0.74;63.75
46111;BME280;31849;55.992;37.252;2022-11-15T17:59:33;98894.13;;;-0.80;63.90
46111;BME280;31849;55.992;37.252;2022-11-15T18:04:38;98891.19;;;-0.91;64.16
46111;BME280;31849;55.992;37.252;2022-11-15T18:09:42;98885.13;;;-0.94;64.31
46111;BME280;31849;55.992;37.252;2022-11-15T18:14:45;98880.75;;;-0.97;64.31
46111;BME280;31849;55.992;37.252;2022-11-15T18:19:50;98882.31;;;-1.02;65.02
46111;BME280;31849;55.992;37.252;2022-11-15T18:24:54;98875.34;;;-0.80;64.20
46111;BME280;31849;55.992;37.252;2022-11-15T18:29:57;98876.03;;;-0.86;64.55
46111;BME280;31849;55.992;37.252;2022-11-15T18:35:03;98873.50;;;-0.86;64.37
46111;BME280;31849;55.992;37.252;2022-11-15T18:40:08;98871.38;;;-0.72;64.08
46111;BME280;31849;55.992;37.252;2022-11-15T18:45:11;98856.88;;;-0.73;64.28
46111;BME280;31849;55.992;37.252;2022-11-15T18:50:17;98858.47;;;-0.77;64.45
46111;BME280;31849;55.992;37.252;2022-11-15T18:55:20;98852.75;;;-0.95;64.45
46111;BME280;31849;55.992;37.252;2022-11-15T19:00:24;98857.28;;;-0.86;64.42
46111;BME280;31849;55.992;37.252;2022-11-15T19:05:28;98848.47;;;-0.71;64.29
46111;BME280;31849;55.992;37.252;2022-11-15T19:10:33;98855.66;;;-0.59;63.63
46111;BME280;31849;55.992;37.252;2022-11-15T19:15:36;98852.13;;;-0.88;64.78
46111;BME280;31849;55.992;37.252;2022-11-15T19:20:41;98843.88;;;-0.81;64.53
46111;BME280;31849;55.992;37.252;2022-11-15T19:25:52;98850.16;;;-0.71;64.41
46111;BME280;31849;55.992;37.252;2022-11-15T19:31:02;98845.19;;;-0.66;64.14
46111;BME280;31849;55.992;37.252;2022-11-15T19:36:12;98841.31;;;-0.54;63.70
46111;BME280;31849;55.992;37.252;2022-11-15T19:41:17;98839.34;;;-0.64;63.81
46111;BME280;31849;55.992;37.252;2022-11-15T19:46:22;98847.47;;;-0.48;63.65
46111;BME280;31849;55.992;37.252;2022-11-15T19:51:28;98838.00;;;-0.51;63.10
46111;BME280;31849;55.992;37.252;2022-11-15T19:56:32;98822.47;;;-0.59;63.78
46111;BME280;31849;55.992;37.252;2022-11-15T20:01:36;98821.25;;;-0.70;63.54
46111;BME280;31849;55.992;37.252;2022-11-15T20:06:42;98834.41;;;-0.83;63.41
46111;BME280;31849;55.992;37.252;2022-11-15T20:11:45;98832.81;;;-0.81;63.52
46111;BME280;31849;55.992;37.252;2022-11-15T20:16:49;98833.06;;;-0.74;63.76
46111;BME280;31849;55.992;37.252;2022-11-15T20:21:56;98833.44;;;-0.61;63.21
46111;BME280;31849;55.992;37.252;2022-11-15T20:27:00;98829.00;;;-0.67;62.94
46111;BME280;31849;55.992;37.252;2022-11-15T20:32:03;98833.00;;;-0.75;63.38
46111;BME280;31849;55.992;37.252;2022-11-15T20:37:09;98832.38;;;-0.68;63.58
46111;BME280;31849;55.992;37.252;2022-11-15T20:42:12;98836.34;;;-0.76;63.58
46111;BME280;31849;55.992;37.252;2022-11-15T20:47:16;98813.03;;;-0.87;63.25
46111;BME280;31849;55.992;37.252;2022-11-15T20:52:38;98823.69;;;-0.73;63.07
46111;BME280;31849;55.992;37.252;2022-11-15T20:57:41;98833.22;;;-0.95;63.58
46111;BME280;31849;55.992;37.252;2022-11-15T21:02:45;98836.44;;;-1.00;63.63
46111;BME280;31849;55.992;37.252;2022-11-15T21:07:50;98833.28;;;-1.17;64.20
46111;BME280;31849;55.992;37.252;2022-11-15T21:12:53;98833.22;;;-1.45;65.02
46111;BME280;31849;55.992;37.252;2022-11-15T21:17:57;98824.97;;;-1.12;64.06
46111;BME280;31849;55.992;37.252;2022-11-15T21:23:02;98832.19;;;-1.00;63.94
46111;BME280;31849;55.992;37.252;2022-11-15T21:28:05;98824.72;;;-0.94;64.07
46111;BME280;31849;55.992;37.252;2022-11-15T21:33:08;98830.47;;;-1.01;63.63
46111;BME280;31849;55.992;37.252;2022-11-15T21:38:13;98825.22;;;-1.04;64.03
46111;BME280;31849;55.992;37.252;2022-11-15T21:43:17;98831.81;;;-1.11;63.93
46111;BME280;31849;55.992;37.252;2022-11-15T21:48:20;98837.97;;;-1.30;64.86
46111;BME280;31849;55.992;37.252;2022-11-15T21:53:26;98823.22;;;-1.14;64.22
46111;BME280;31849;55.992;37.252;2022-11-15T21:58:30;98834.63;;;-1.29;64.15
46111;BME280;31849;55.992;37.252;2022-11-15T22:03:34;98832.28;;;-1.22;64.29
46111;BME280;31849;55.992;37.252;2022-11-15T22:08:39;98826.38;;;-1.21;63.94
46111;BME280;31849;55.992;37.252;2022-11-15T22:13:42;98826.16;;;-1.28;63.56
46111;BME280;31849;55.992;37.252;2022-11-15T22:18:45;98828.72;;;-1.28;63.73
46111;BME280;31849;55.992;37.252;2022-11-15T22:23:50;98824.88;;;-1.15;64.12
46111;BME280;31849;55.992;37.252;2022-11-15T22:28:54;98814.63;;;-1.16;63.71
46111;BME280;31849;55.992;37.252;2022-11-15T22:33:58;98819.81;;;-1.13;64.08
46111;BME280;31849;55.992;37.252;2022-11-15T22:39:03;98825.81;;;-1.37;64.67
46111;BME280;31849;55.992;37.252;2022-11-15T22:44:06;98822.88;;;-1.24;64.03
46111;BME280;31849;55.992;37.252;2022-11-15T22:49:10;98827.88;;;-1.27;63.88
46111;BME280;31849;55.992;37.252;2022-11-15T22:54:15;98817.97;;;-1.17;63.64
46111;BME280;31849;55.992;37.252;2022-11-15T22:59:18;98818.22;;;-1.11;63.10
46111;BME280;31849;55.992;37.252;2022-11-15T23:04:22;98822.22;;;-1.18;63.16
46111;BME280;31849;55.992;37.252;2022-11-15T23:09:27;98818.75;;;-1.20;63.23
46111;BME280;31849;55.992;37.252;2022-11-15T23:14:31;98818.75;;;-1.44;63.64
46111;BME280;31849;55.992;37.252;2022-11-15T23:19:34;98821.16;;;-1.49;63.99
46111;BME280;31849;55.992;37.252;2022-11-15T23:24:39;98834.34;;;-1.61;63.73
46111;BME280;31849;55.992;37.252;2022-11-15T23:29:42;98827.16;;;-1.48;64.57
46111;BME280;31849;55.992;37.252;2022-11-15T23:35:04;98830.97;;;-1.60;64.33
46111;BME280;31849;55.992;37.252;2022-11-15T23:40:11;98828.91;;;-1.46;63.82
46111;BME280;31849;55.992;37.252;2022-11-15T23:45:15;98830.88;;;-1.63;64.19
46111;BME280;31849;55.992;37.252;2022-11-15T23:50:19;98830.59;;;-1.70;63.90
46111;BME280;31849;55.992;37.252;2022-11-15T23:55:24;98830.28;;;-1.55;63.60
